sensor_id;sensor_type;location;lat;lon;timestamp;P1;durP1;ratioP1;P2;durP2;ratioP2
26484;SDS011;18083;50.560;7.262;2022-11-11T00:01:02;20.07;;;9.60;;
26484;SDS011;18083;50.560;7.262;2022-11-11T00:03:26;19.87;;;11.73;;
26484;SDS011;18083;50.560;7.262;2022-11-11T00:05:54;21.00;;;11.70;;
26484;SDS011;18083;50.560;7.262;2022-11-11T00:08:21;18.73;;;11.03;;
26484;SDS011;18083;50.560;7.262;2022-11-11T00:10:48;18.70;;;9.83;;
26484;SDS011;18083;50.560;7.262;2022-11-11T00:13:16;15.90;;;9.30;;
26484;SDS011;18083;50.560;7.262;2022-11-11T00:15:43;16.83;;;10.57;;
26484;SDS011;18083;50.560;7.262;2022-11-11T00:18:11;26.50;;;11.37;;
26484;SDS011;18083;50.560;7.262;2022-11-11T00:20:57;25.97;;;10.77;;
26484;SDS011;18083;50.560;7.262;2022-11-11T00:23:42;24.47;;;11.20;;
26484;SDS011;18083;50.560;7.262;2022-11-11T00:26:29;18.40;;;11.23;;
26484;SDS011;18083;50.560;7.262;2022-11-11T00:28:56;22.30;;;12.00;;
26484;SDS011;18083;50.560;7.262;2022-11-11T00:31:25;22.13;;;11.37;;
26484;SDS011;18083;50.560;7.262;2022-11-11T00:33:52;15.30;;;9.90;;
26484;SDS011;18083;50.560;7.262;2022-11-11T00:36:19;16.43;;;11.23;;
26484;SDS011;18083;50.560;7.262;2022-11-11T00:38:47;16.73;;;9.47;;
26484;SDS011;18083;50.560;7.262;2022-11-11T00:41:18;14.33;;;9.33;;
26484;SDS011;18083;50.560;7.262;2022-11-11T00:43:46;17.13;;;9.57;;
26484;SDS011;18083;50.560;7.262;2022-11-11T00:46:14;25.27;;;10.57;;
26484;SDS011;18083;50.560;7.262;2022-11-11T00:48:59;15.70;;;9.13;;
26484;SDS011;18083;50.560;7.262;2022-11-11T00:51:45;36.73;;;12.57;;
26484;SDS011;18083;50.560;7.262;2022-11-11T00:54:12;15.87;;;8.63;;
26484;SDS011;18083;50.560;7.262;2022-11-11T00:56:40;21.60;;;8.30;;
26484;SDS011;18083;50.560;7.262;2022-11-11T00:59:07;13.23;;;8.13;;
26484;SDS011;18083;50.560;7.262;2022-11-11T01:01:35;17.07;;;9.80;;
26484;SDS011;18083;50.560;7.262;2022-11-11T01:04:03;21.37;;;10.00;;
26484;SDS011;18083;50.560;7.262;2022-11-11T01:06:31;20.07;;;9.60;;
26484;SDS011;18083;50.560;7.262;2022-11-11T01:09:03;23.17;;;10.47;;
26484;SDS011;18083;50.560;7.262;2022-11-11T01:11:27;16.80;;;10.70;;
26484;SDS011;18083;50.560;7.262;2022-11-11T01:13:55;27.37;;;11.90;;
26484;SDS011;18083;50.560;7.262;2022-11-11T01:16:23;25.87;;;12.27;;
26484;SDS011;18083;50.560;7.262;2022-11-11T01:18:51;23.43;;;12.10;;
26484;SDS011;18083;50.560;7.262;2022-11-11T01:21:20;23.67;;;11.73;;
26484;SDS011;18083;50.560;7.262;2022-11-11T01:23:47;27.60;;;12.90;;
26484;SDS011;18083;50.560;7.262;2022-11-11T01:26:16;29.90;;;13.33;;
26484;SDS011;18083;50.560;7.262;2022-11-11T01:28:47;25.10;;;12.13;;
26484;SDS011;18083;50.560;7.262;2022-11-11T01:31:13;25.57;;;12.77;;
26484;SDS011;18083;50.560;7.262;2022-11-11T01:33:41;32.77;;;13.33;;
26484;SDS011;18083;50.560;7.262;2022-11-11T01:36:09;21.40;;;11.13;;
26484;SDS011;18083;50.560;7.262;2022-11-11T01:38:37;28.00;;;11.50;;
26484;SDS011;18083;50.560;7.262;2022-11-11T01:41:05;19.87;;;9.67;;
26484;SDS011;18083;50.560;7.262;2022-11-11T01:43:51;20.63;;;12.00;;
26484;SDS011;18083;50.560;7.262;2022-11-11T01:47:02;21.17;;;11.43;;
26484;SDS011;18083;50.560;7.262;2022-11-11T01:48:52;25.47;;;11.77;;
26484;SDS011;18083;50.560;7.262;2022-11-11T01:51:39;22.27;;;10.70;;
26484;SDS011;18083;50.560;7.262;2022-11-11T01:54:07;29.83;;;12.60;;
26484;SDS011;18083;50.560;7.262;2022-11-11T01:56:35;26.30;;;12.00;;
26484;SDS011;18083;50.560;7.262;2022-11-11T01:59:04;21.47;;;11.43;;
26484;SDS011;18083;50.560;7.262;2022-11-11T02:01:31;35.07;;;14.03;;
26484;SDS011;18083;50.560;7.262;2022-11-11T02:03:59;24.37;;;12.13;;
26484;SDS011;18083;50.560;7.262;2022-11-11T02:06:45;30.33;;;12.43;;
26484;SDS011;18083;50.560;7.262;2022-11-11T02:09:13;19.87;;;10.60;;
26484;SDS011;18083;50.560;7.262;2022-11-11T02:11:40;41.07;;;12.70;;
26484;SDS011;18083;50.560;7.262;2022-11-11T02:14:26;23.20;;;12.83;;
26484;SDS011;18083;50.560;7.262;2022-11-11T02:17:03;23.37;;;11.43;;
26484;SDS011;18083;50.560;7.262;2022-11-11T02:19:34;20.37;;;10.90;;
26484;SDS011;18083;50.560;7.262;2022-11-11T02:22:00;25.57;;;11.67;;
26484;SDS011;18083;50.560;7.262;2022-11-11T02:24:28;28.30;;;12.93;;
26484;SDS011;18083;50.560;7.262;2022-11-11T02:26:56;23.93;;;12.77;;
26484;SDS011;18083;50.560;7.262;2022-11-11T02:29:25;23.50;;;11.70;;
26484;SDS011;18083;50.560;7.262;2022-11-11T02:31:52;20.97;;;11.87;;
26484;SDS011;18083;50.560;7.262;2022-11-11T02:34:20;22.50;;;12.90;;
26484;SDS011;18083;50.560;7.262;2022-11-11T02:36:47;21.00;;;11.97;;
26484;SDS011;18083;50.560;7.262;2022-11-11T02:39:14;23.73;;;12.63;;
26484;SDS011;18083;50.560;7.262;2022-11-11T02:41:46;21.90;;;12.10;;
26484;SDS011;18083;50.560;7.262;2022-11-11T02:44:27;20.77;;;11.83;;
26484;SDS011;18083;50.560;7.262;2022-11-11T02:46:51;26.17;;;13.60;;
26484;SDS011;18083;50.560;7.262;2022-11-11T02:49:19;24.10;;;12.43;;
26484;SDS011;18083;50.560;7.262;2022-11-11T02:51:46;27.90;;;14.83;;
26484;SDS011;18083;50.560;7.262;2022-11-11T02:54:14;22.03;;;11.10;;
26484;SDS011;18083;50.560;7.262;2022-11-11T02:56:42;30.13;;;12.63;;
26484;SDS011;18083;50.560;7.262;2022-11-11T02:59:28;22.63;;;12.47;;
26484;SDS011;18083;50.560;7.262;2022-11-11T03:01:55;26.83;;;12.30;;
26484;SDS011;18083;50.560;7.262;2022-11-11T03:04:22;22.37;;;12.60;;
26484;SDS011;18083;50.560;7.262;2022-11-11T03:06:50;20.73;;;11.67;;
26484;SDS011;18083;50.560;7.262;2022-11-11T03:09:17;23.07;;;12.07;;
26484;SDS011;18083;50.560;7.262;2022-11-11T03:11:44;23.20;;;12.60;;
26484;SDS011;18083;50.560;7.262;2022-11-11T03:14:12;22.70;;;12.07;;
26484;SDS011;18083;50.560;7.262;2022-11-11T03:16:39;22.63;;;11.37;;
26484;SDS011;18083;50.560;7.262;2022-11-11T03:19:24;23.10;;;12.57;;
26484;SDS011;18083;50.560;7.262;2022-11-11T03:21:52;22.27;;;11.10;;
26484;SDS011;18083;50.560;7.262;2022-11-11T03:24:21;22.83;;;12.87;;
26484;SDS011;18083;50.560;7.262;2022-11-11T03:26:48;34.13;;;12.50;;
26484;SDS011;18083;50.560;7.262;2022-11-11T03:29:15;23.60;;;12.00;;
26484;SDS011;18083;50.560;7.262;2022-11-11T03:31:42;22.53;;;13.07;;
26484;SDS011;18083;50.560;7.262;2022-11-11T03:34:10;22.53;;;11.60;;
26484;SDS011;18083;50.560;7.262;2022-11-11T03:36:46;19.80;;;11.00;;
26484;SDS011;18083;50.560;7.262;2022-11-11T03:39:31;19.43;;;10.90;;
26484;SDS011;18083;50.560;7.262;2022-11-11T03:41:59;21.67;;;12.00;;
26484;SDS011;18083;50.560;7.262;2022-11-11T03:44:26;27.13;;;11.47;;
26484;SDS011;18083;50.560;7.262;2022-11-11T03:46:58;22.00;;;11.77;;
26484;SDS011;18083;50.560;7.262;2022-11-11T03:49:22;19.37;;;10.70;;
26484;SDS011;18083;50.560;7.262;2022-11-11T03:51:50;20.33;;;10.57;;
26484;SDS011;18083;50.560;7.262;2022-11-11T03:54:17;19.20;;;10.53;;
26484;SDS011;18083;50.560;7.262;2022-11-11T03:56:44;19.63;;;9.70;;
26484;SDS011;18083;50.560;7.262;2022-11-11T03:59:12;18.20;;;10.30;;
26484;SDS011;18083;50.560;7.262;2022-11-11T04:01:39;16.37;;;8.83;;
26484;SDS011;18083;50.560;7.262;2022-11-11T04:04:24;16.63;;;7.27;;
26484;SDS011;18083;50.560;7.262;2022-11-11T04:07:09;11.53;;;6.77;;
26484;SDS011;18083;50.560;7.262;2022-11-11T04:09:54;9.90;;;6.40;;
26484;SDS011;18083;50.560;7.262;2022-11-11T04:12:40;9.83;;;5.57;;
26484;SDS011;18083;50.560;7.262;2022-11-11T04:15:26;15.27;;;7.47;;
26484;SDS011;18083;50.560;7.262;2022-11-11T04:18:11;12.70;;;8.07;;
26484;SDS011;18083;50.560;7.262;2022-11-11T04:20:41;13.90;;;6.37;;
26484;SDS011;18083;50.560;7.262;2022-11-11T04:23:25;10.93;;;6.60;;
26484;SDS011;18083;50.560;7.262;2022-11-11T04:25:52;8.03;;;5.60;;
26484;SDS011;18083;50.560;7.262;2022-11-11T04:28:21;14.87;;;6.93;;
26484;SDS011;18083;50.560;7.262;2022-11-11T04:31:06;12.23;;;6.27;;
26484;SDS011;18083;50.560;7.262;2022-11-11T04:33:34;11.23;;;5.17;;
26484;SDS011;18083;50.560;7.262;2022-11-11T04:36:01;8.70;;;5.47;;
26484;SDS011;18083;50.560;7.262;2022-11-11T04:38:28;9.27;;;5.80;;
26484;SDS011;18083;50.560;7.262;2022-11-11T04:41:14;11.77;;;5.63;;
26484;SDS011;18083;50.560;7.262;2022-11-11T04:43:41;12.77;;;6.27;;
26484;SDS011;18083;50.560;7.262;2022-11-11T04:46:26;13.07;;;5.30;;
26484;SDS011;18083;50.560;7.262;2022-11-11T04:48:54;11.20;;;6.63;;
26484;SDS011;18083;50.560;7.262;2022-11-11T04:51:21;14.83;;;8.80;;
26484;SDS011;18083;50.560;7.262;2022-11-11T04:53:50;18.13;;;9.03;;
26484;SDS011;18083;50.560;7.262;2022-11-11T04:56:17;17.23;;;8.40;;
26484;SDS011;18083;50.560;7.262;2022-11-11T04:59:03;23.80;;;10.13;;
26484;SDS011;18083;50.560;7.262;2022-11-11T05:01:42;17.50;;;9.07;;
26484;SDS011;18083;50.560;7.262;2022-11-11T05:04:27;20.97;;;9.73;;
26484;SDS011;18083;50.560;7.262;2022-11-11T05:06:54;16.87;;;8.53;;
26484;SDS011;18083;50.560;7.262;2022-11-11T05:09:40;12.63;;;7.70;;
26484;SDS011;18083;50.560;7.262;2022-11-11T05:12:07;14.60;;;8.27;;
26484;SDS011;18083;50.560;7.262;2022-11-11T05:14:35;15.63;;;8.37;;
26484;SDS011;18083;50.560;7.262;2022-11-11T05:17:20;17.23;;;7.47;;
26484;SDS011;18083;50.560;7.262;2022-11-11T05:20:05;12.57;;;7.70;;
26484;SDS011;18083;50.560;7.262;2022-11-11T05:22:50;13.90;;;6.70;;
26484;SDS011;18083;50.560;7.262;2022-11-11T05:25:18;9.90;;;6.77;;
26484;SDS011;18083;50.560;7.262;2022-11-11T05:27:58;14.07;;;7.87;;
26484;SDS011;18083;50.560;7.262;2022-11-11T05:30:22;11.90;;;7.43;;
26484;SDS011;18083;50.560;7.262;2022-11-11T05:32:50;13.50;;;6.17;;
26484;SDS011;18083;50.560;7.262;2022-11-11T05:35:18;10.47;;;6.27;;
26484;SDS011;18083;50.560;7.262;2022-11-11T05:37:45;19.83;;;7.07;;
26484;SDS011;18083;50.560;7.262;2022-11-11T05:40:14;12.23;;;6.63;;
26484;SDS011;18083;50.560;7.262;2022-11-11T05:42:41;12.03;;;7.07;;
26484;SDS011;18083;50.560;7.262;2022-11-11T05:45:09;13.63;;;6.90;;
26484;SDS011;18083;50.560;7.262;2022-11-11T05:47:36;14.23;;;6.77;;
26484;SDS011;18083;50.560;7.262;2022-11-11T05:50:04;10.57;;;7.00;;
26484;SDS011;18083;50.560;7.262;2022-11-11T05:52:31;12.77;;;6.67;;
26484;SDS011;18083;50.560;7.262;2022-11-11T05:54:58;11.90;;;6.43;;
26484;SDS011;18083;50.560;7.262;2022-11-11T05:57:26;13.83;;;6.20;;
26484;SDS011;18083;50.560;7.262;2022-11-11T05:59:53;17.20;;;7.30;;
26484;SDS011;18083;50.560;7.262;2022-11-11T06:02:20;21.63;;;10.50;;
26484;SDS011;18083;50.560;7.262;2022-11-11T06:04:48;23.97;;;11.30;;
26484;SDS011;18083;50.560;7.262;2022-11-11T06:07:15;22.83;;;11.57;;
26484;SDS011;18083;50.560;7.262;2022-11-11T06:09:42;30.77;;;11.53;;
26484;SDS011;18083;50.560;7.262;2022-11-11T06:12:10;28.73;;;11.90;;
26484;SDS011;18083;50.560;7.262;2022-11-11T06:14:37;34.37;;;14.17;;
26484;SDS011;18083;50.560;7.262;2022-11-11T06:17:04;25.73;;;13.53;;
26484;SDS011;18083;50.560;7.262;2022-11-11T06:19:32;27.23;;;10.70;;
26484;SDS011;18083;50.560;7.262;2022-11-11T06:21:59;21.30;;;11.57;;
26484;SDS011;18083;50.560;7.262;2022-11-11T06:24:28;22.93;;;11.83;;
26484;SDS011;18083;50.560;7.262;2022-11-11T06:26:55;22.03;;;10.73;;
26484;SDS011;18083;50.560;7.262;2022-11-11T06:29:23;49.03;;;14.03;;
26484;SDS011;18083;50.560;7.262;2022-11-11T06:31:50;25.37;;;11.53;;
26484;SDS011;18083;50.560;7.262;2022-11-11T06:34:18;32.97;;;13.17;;
26484;SDS011;18083;50.560;7.262;2022-11-11T06:36:45;24.23;;;11.67;;
26484;SDS011;18083;50.560;7.262;2022-11-11T06:39:12;31.70;;;12.97;;
26484;SDS011;18083;50.560;7.262;2022-11-11T06:41:40;24.90;;;11.27;;
26484;SDS011;18083;50.560;7.262;2022-11-11T06:44:07;28.60;;;13.30;;
26484;SDS011;18083;50.560;7.262;2022-11-11T06:46:34;21.83;;;12.73;;
26484;SDS011;18083;50.560;7.262;2022-11-11T06:49:02;27.97;;;12.27;;
26484;SDS011;18083;50.560;7.262;2022-11-11T06:51:29;24.03;;;12.40;;
26484;SDS011;18083;50.560;7.262;2022-11-11T06:53:56;20.10;;;10.83;;
26484;SDS011;18083;50.560;7.262;2022-11-11T06:56:25;18.27;;;11.07;;
26484;SDS011;18083;50.560;7.262;2022-11-11T06:58:52;15.67;;;10.80;;
26484;SDS011;18083;50.560;7.262;2022-11-11T07:01:19;14.47;;;9.87;;
26484;SDS011;18083;50.560;7.262;2022-11-11T07:03:47;17.63;;;10.00;;
26484;SDS011;18083;50.560;7.262;2022-11-11T07:06:14;18.70;;;9.93;;
26484;SDS011;18083;50.560;7.262;2022-11-11T07:08:41;18.93;;;10.63;;
26484;SDS011;18083;50.560;7.262;2022-11-11T07:11:09;19.40;;;10.93;;
26484;SDS011;18083;50.560;7.262;2022-11-11T07:13:37;18.50;;;10.10;;
26484;SDS011;18083;50.560;7.262;2022-11-11T07:16:04;16.33;;;9.57;;
26484;SDS011;18083;50.560;7.262;2022-11-11T07:18:32;21.20;;;11.10;;
26484;SDS011;18083;50.560;7.262;2022-11-11T07:20:59;17.13;;;10.00;;
26484;SDS011;18083;50.560;7.262;2022-11-11T07:23:26;16.23;;;8.83;;
26484;SDS011;18083;50.560;7.262;2022-11-11T07:25:54;20.90;;;9.93;;
26484;SDS011;18083;50.560;7.262;2022-11-11T07:28:21;17.77;;;9.63;;
26484;SDS011;18083;50.560;7.262;2022-11-11T07:30:50;13.00;;;8.77;;
26484;SDS011;18083;50.560;7.262;2022-11-11T07:33:17;17.30;;;9.37;;
26484;SDS011;18083;50.560;7.262;2022-11-11T07:35:47;18.37;;;10.33;;
26484;SDS011;18083;50.560;7.262;2022-11-11T07:38:15;22.10;;;10.10;;
26484;SDS011;18083;50.560;7.262;2022-11-11T07:40:48;20.40;;;11.33;;
26484;SDS011;18083;50.560;7.262;2022-11-11T07:43:18;22.47;;;11.40;;
26484;SDS011;18083;50.560;7.262;2022-11-11T07:45:47;24.73;;;9.57;;
26484;SDS011;18083;50.560;7.262;2022-11-11T07:48:16;20.17;;;10.97;;
26484;SDS011;18083;50.560;7.262;2022-11-11T07:50:45;28.13;;;11.67;;
26484;SDS011;18083;50.560;7.262;2022-11-11T07:53:12;17.47;;;10.40;;
26484;SDS011;18083;50.560;7.262;2022-11-11T07:55:43;18.37;;;10.53;;
26484;SDS011;18083;50.560;7.262;2022-11-11T07:58:11;19.07;;;10.83;;
26484;SDS011;18083;50.560;7.262;2022-11-11T08:00:39;23.43;;;11.73;;
26484;SDS011;18083;50.560;7.262;2022-11-11T08:03:06;18.50;;;9.93;;
26484;SDS011;18083;50.560;7.262;2022-11-11T08:05:37;23.73;;;10.27;;
26484;SDS011;18083;50.560;7.262;2022-11-11T08:08:04;22.57;;;10.10;;
26484;SDS011;18083;50.560;7.262;2022-11-11T08:10:32;19.63;;;9.93;;
26484;SDS011;18083;50.560;7.262;2022-11-11T08:13:00;20.87;;;8.17;;
26484;SDS011;18083;50.560;7.262;2022-11-11T08:15:45;15.87;;;9.13;;
26484;SDS011;18083;50.560;7.262;2022-11-11T08:18:12;16.80;;;10.10;;
26484;SDS011;18083;50.560;7.262;2022-11-11T08:20:40;26.37;;;12.17;;
26484;SDS011;18083;50.560;7.262;2022-11-11T08:23:07;19.97;;;10.53;;
26484;SDS011;18083;50.560;7.262;2022-11-11T08:25:36;17.87;;;9.27;;
26484;SDS011;18083;50.560;7.262;2022-11-11T08:28:03;21.07;;;9.47;;
26484;SDS011;18083;50.560;7.262;2022-11-11T08:30:31;18.43;;;10.47;;
26484;SDS011;18083;50.560;7.262;2022-11-11T08:33:02;20.73;;;9.13;;
26484;SDS011;18083;50.560;7.262;2022-11-11T08:35:30;17.67;;;8.43;;
26484;SDS011;18083;50.560;7.262;2022-11-11T08:38:01;14.00;;;8.90;;
26484;SDS011;18083;50.560;7.262;2022-11-11T08:40:28;15.13;;;8.50;;
26484;SDS011;18083;50.560;7.262;2022-11-11T08:42:56;25.63;;;9.27;;
26484;SDS011;18083;50.560;7.262;2022-11-11T08:45:24;13.90;;;7.70;;
26484;SDS011;18083;50.560;7.262;2022-11-11T08:47:51;16.30;;;8.03;;
26484;SDS011;18083;50.560;7.262;2022-11-11T08:50:19;16.13;;;9.30;;
26484;SDS011;18083;50.560;7.262;2022-11-11T08:52:46;19.60;;;8.50;;
26484;SDS011;18083;50.560;7.262;2022-11-11T08:55:15;19.87;;;8.53;;
26484;SDS011;18083;50.560;7.262;2022-11-11T08:57:42;16.60;;;8.70;;
26484;SDS011;18083;50.560;7.262;2022-11-11T09:00:12;19.23;;;8.47;;
26484;SDS011;18083;50.560;7.262;2022-11-11T09:02:39;12.73;;;8.77;;
26484;SDS011;18083;50.560;7.262;2022-11-11T09:05:08;16.70;;;7.63;;
26484;SDS011;18083;50.560;7.262;2022-11-11T09:07:37;13.23;;;6.80;;
26484;SDS011;18083;50.560;7.262;2022-11-11T09:10:04;14.03;;;7.47;;
26484;SDS011;18083;50.560;7.262;2022-11-11T09:12:32;14.90;;;7.20;;
26484;SDS011;18083;50.560;7.262;2022-11-11T09:14:59;17.37;;;7.83;;
26484;SDS011;18083;50.560;7.262;2022-11-11T09:17:27;14.37;;;7.70;;
26484;SDS011;18083;50.560;7.262;2022-11-11T09:19:54;10.50;;;6.33;;
26484;SDS011;18083;50.560;7.262;2022-11-11T09:22:21;17.40;;;7.70;;
26484;SDS011;18083;50.560;7.262;2022-11-11T09:24:49;14.37;;;7.33;;
26484;SDS011;18083;50.560;7.262;2022-11-11T09:27:17;14.70;;;7.33;;
26484;SDS011;18083;50.560;7.262;2022-11-11T09:29:44;14.97;;;8.53;;
26484;SDS011;18083;50.560;7.262;2022-11-11T09:32:14;14.90;;;7.03;;
26484;SDS011;18083;50.560;7.262;2022-11-11T09:34:40;16.17;;;6.47;;
26484;SDS011;18083;50.560;7.262;2022-11-11T09:37:08;14.47;;;8.17;;
26484;SDS011;18083;50.560;7.262;2022-11-11T09:39:38;18.20;;;7.87;;
26484;SDS011;18083;50.560;7.262;2022-11-11T09:42:22;11.07;;;5.70;;
26484;SDS011;18083;50.560;7.262;2022-11-11T09:47:37;13.00;;;6.93;;
26484;SDS011;18083;50.560;7.262;2022-11-11T09:50:24;15.37;;;5.93;;
26484;SDS011;18083;50.560;7.262;2022-11-11T09:52:53;15.30;;;7.13;;
26484;SDS011;18083;50.560;7.262;2022-11-11T09:55:39;13.97;;;7.63;;
26484;SDS011;18083;50.560;7.262;2022-11-11T09:58:16;18.33;;;8.33;;
26484;SDS011;18083;50.560;7.262;2022-11-11T10:00:45;10.37;;;5.90;;
26484;SDS011;18083;50.560;7.262;2022-11-11T10:03:20;16.43;;;6.87;;
26484;SDS011;18083;50.560;7.262;2022-11-11T10:05:58;11.23;;;5.90;;
26484;SDS011;18083;50.560;7.262;2022-11-11T10:08:27;10.13;;;5.07;;
26484;SDS011;18083;50.560;7.262;2022-11-11T10:10:55;13.13;;;7.57;;
26484;SDS011;18083;50.560;7.262;2022-11-11T10:13:28;9.57;;;5.30;;
26484;SDS011;18083;50.560;7.262;2022-11-11T10:15:56;10.90;;;5.70;;
26484;SDS011;18083;50.560;7.262;2022-11-11T10:20:55;8.13;;;5.00;;
26484;SDS011;18083;50.560;7.262;2022-11-11T10:23:30;10.90;;;5.40;;
26484;SDS011;18083;50.560;7.262;2022-11-11T10:25:59;8.63;;;5.70;;
26484;SDS011;18083;50.560;7.262;2022-11-11T10:28:30;8.50;;;5.80;;
26484;SDS011;18083;50.560;7.262;2022-11-11T10:30:58;15.20;;;4.90;;
26484;SDS011;18083;50.560;7.262;2022-11-11T10:33:31;13.07;;;6.03;;
26484;SDS011;18083;50.560;7.262;2022-11-11T10:35:59;11.20;;;4.63;;
26484;SDS011;18083;50.560;7.262;2022-11-11T10:41:44;11.00;;;5.73;;
26484;SDS011;18083;50.560;7.262;2022-11-11T10:43:27;20.33;;;6.27;;
26484;SDS011;18083;50.560;7.262;2022-11-11T10:51:09;12.97;;;5.40;;
26484;SDS011;18083;50.560;7.262;2022-11-11T10:56:36;11.70;;;6.00;;
26484;SDS011;18083;50.560;7.262;2022-11-11T10:59:17;10.30;;;5.47;;
26484;SDS011;18083;50.560;7.262;2022-11-11T11:01:59;9.78;;;6.53;;
26484;SDS011;18083;50.560;7.262;2022-11-11T11:04:30;8.20;;;4.73;;
26484;SDS011;18083;50.560;7.262;2022-11-11T11:06:54;6.67;;;4.87;;
26484;SDS011;18083;50.560;7.262;2022-11-11T11:09:26;9.10;;;5.37;;
26484;SDS011;18083;50.560;7.262;2022-11-11T11:11:57;7.00;;;4.60;;
26484;SDS011;18083;50.560;7.262;2022-11-11T11:14:23;7.78;;;4.75;;
26484;SDS011;18083;50.560;7.262;2022-11-11T11:16:49;7.50;;;5.22;;
26484;SDS011;18083;50.560;7.262;2022-11-11T11:19:18;14.03;;;6.63;;
26484;SDS011;18083;50.560;7.262;2022-11-11T11:21:53;10.28;;;5.97;;
26484;SDS011;18083;50.560;7.262;2022-11-11T11:24:22;10.28;;;6.50;;
26484;SDS011;18083;50.560;7.262;2022-11-11T11:26:51;6.72;;;4.67;;
26484;SDS011;18083;50.560;7.262;2022-11-11T11:29:32;9.55;;;5.28;;
26484;SDS011;18083;50.560;7.262;2022-11-11T11:32:15;7.87;;;3.65;;
26484;SDS011;18083;50.560;7.262;2022-11-11T11:37:14;8.85;;;5.78;;
26484;SDS011;18083;50.560;7.262;2022-11-11T11:39:42;7.45;;;4.28;;
26484;SDS011;18083;50.560;7.262;2022-11-11T11:42:28;5.43;;;4.53;;
26484;SDS011;18083;50.560;7.262;2022-11-11T11:44:56;10.20;;;5.10;;
26484;SDS011;18083;50.560;7.262;2022-11-11T11:50:13;7.30;;;3.90;;
26484;SDS011;18083;50.560;7.262;2022-11-11T11:55:30;9.80;;;4.67;;
26484;SDS011;18083;50.560;7.262;2022-11-11T11:58:11;6.65;;;3.72;;
26484;SDS011;18083;50.560;7.262;2022-11-11T12:00:40;7.78;;;3.37;;
26484;SDS011;18083;50.560;7.262;2022-11-11T12:11:41;10.93;;;3.62;;
26484;SDS011;18083;50.560;7.262;2022-11-11T12:19:31;11.03;;;3.70;;
26484;SDS011;18083;50.560;7.262;2022-11-11T12:22:03;6.17;;;3.98;;
26484;SDS011;18083;50.560;7.262;2022-11-11T12:24:30;11.18;;;2.75;;
26484;SDS011;18083;50.560;7.262;2022-11-11T12:27:01;5.28;;;3.10;;
26484;SDS011;18083;50.560;7.262;2022-11-11T13:00:24;3.47;;;2.62;;
26484;SDS011;18083;50.560;7.262;2022-11-11T13:05:25;3.33;;;2.47;;
26484;SDS011;18083;50.560;7.262;2022-11-11T13:15:32;8.15;;;2.95;;
26484;SDS011;18083;50.560;7.262;2022-11-11T13:17:59;6.75;;;3.30;;
26484;SDS011;18083;50.560;7.262;2022-11-11T13:20:39;7.30;;;3.50;;
26484;SDS011;18083;50.560;7.262;2022-11-11T13:23:09;25.50;;;4.03;;
26484;SDS011;18083;50.560;7.262;2022-11-11T13:25:43;10.85;;;2.98;;
26484;SDS011;18083;50.560;7.262;2022-11-11T13:28:07;4.40;;;2.72;;
26484;SDS011;18083;50.560;7.262;2022-11-11T13:30:40;12.78;;;2.52;;
26484;SDS011;18083;50.560;7.262;2022-11-11T13:33:20;5.67;;;3.27;;
26484;SDS011;18083;50.560;7.262;2022-11-11T13:35:44;6.15;;;2.60;;
26484;SDS011;18083;50.560;7.262;2022-11-11T13:38:31;4.97;;;3.30;;
26484;SDS011;18083;50.560;7.262;2022-11-11T13:41:01;6.00;;;2.30;;
26484;SDS011;18083;50.560;7.262;2022-11-11T13:43:29;9.00;;;2.62;;
26484;SDS011;18083;50.560;7.262;2022-11-11T13:45:58;2.67;;;2.12;;
26484;SDS011;18083;50.560;7.262;2022-11-11T13:51:41;6.08;;;2.52;;
26484;SDS011;18083;50.560;7.262;2022-11-11T13:53:32;3.80;;;1.87;;
26484;SDS011;18083;50.560;7.262;2022-11-11T13:55:59;4.35;;;2.40;;
26484;SDS011;18083;50.560;7.262;2022-11-11T13:58:35;2.55;;;1.92;;
26484;SDS011;18083;50.560;7.262;2022-11-11T14:01:03;3.12;;;2.42;;
26484;SDS011;18083;50.560;7.262;2022-11-11T14:13:54;3.80;;;2.70;;
26484;SDS011;18083;50.560;7.262;2022-11-11T14:21:50;9.10;;;3.40;;
26484;SDS011;18083;50.560;7.262;2022-11-11T14:24:36;6.80;;;2.58;;
26484;SDS011;18083;50.560;7.262;2022-11-11T14:27:13;10.25;;;2.98;;
26484;SDS011;18083;50.560;7.262;2022-11-11T14:29:33;7.37;;;2.70;;
26484;SDS011;18083;50.560;7.262;2022-11-11T14:34:50;6.35;;;2.65;;
26484;SDS011;18083;50.560;7.262;2022-11-11T14:37:29;6.30;;;2.58;;
26484;SDS011;18083;50.560;7.262;2022-11-11T14:39:51;7.30;;;2.93;;
26484;SDS011;18083;50.560;7.262;2022-11-11T14:45:02;5.17;;;2.12;;
26484;SDS011;18083;50.560;7.262;2022-11-11T14:47:31;4.97;;;2.25;;
26484;SDS011;18083;50.560;7.262;2022-11-11T14:49:59;6.25;;;2.45;;
26484;SDS011;18083;50.560;7.262;2022-11-11T14:52:39;3.95;;;2.33;;
26484;SDS011;18083;50.560;7.262;2022-11-11T14:55:11;3.67;;;2.00;;
26484;SDS011;18083;50.560;7.262;2022-11-11T14:57:46;5.55;;;2.27;;
26484;SDS011;18083;50.560;7.262;2022-11-11T15:00:15;4.12;;;2.52;;
26484;SDS011;18083;50.560;7.262;2022-11-11T15:02:59;4.47;;;2.60;;
26484;SDS011;18083;50.560;7.262;2022-11-11T15:05:30;2.17;;;1.82;;
26484;SDS011;18083;50.560;7.262;2022-11-11T15:10:48;5.40;;;2.10;;
26484;SDS011;18083;50.560;7.262;2022-11-11T15:13:18;4.33;;;1.50;;
26484;SDS011;18083;50.560;7.262;2022-11-11T15:15:59;3.35;;;2.27;;
26484;SDS011;18083;50.560;7.262;2022-11-11T15:18:27;5.25;;;2.00;;
26484;SDS011;18083;50.560;7.262;2022-11-11T15:20:55;5.80;;;2.33;;
26484;SDS011;18083;50.560;7.262;2022-11-11T15:23:38;10.37;;;7.00;;
26484;SDS011;18083;50.560;7.262;2022-11-11T15:26:09;8.35;;;3.58;;
26484;SDS011;18083;50.560;7.262;2022-11-11T15:28:39;9.15;;;4.60;;
26484;SDS011;18083;50.560;7.262;2022-11-11T15:33:56;8.63;;;3.10;;
26484;SDS011;18083;50.560;7.262;2022-11-11T15:36:48;3.33;;;2.80;;
26484;SDS011;18083;50.560;7.262;2022-11-11T15:39:13;4.83;;;2.65;;
26484;SDS011;18083;50.560;7.262;2022-11-11T15:41:40;8.33;;;2.47;;
26484;SDS011;18083;50.560;7.262;2022-11-11T15:44:12;3.17;;;2.12;;
26484;SDS011;18083;50.560;7.262;2022-11-11T15:46:39;5.50;;;2.37;;
26484;SDS011;18083;50.560;7.262;2022-11-11T15:49:11;6.17;;;2.20;;
26484;SDS011;18083;50.560;7.262;2022-11-11T15:51:35;4.05;;;2.47;;
26484;SDS011;18083;50.560;7.262;2022-11-11T15:54:13;5.87;;;2.67;;
26484;SDS011;18083;50.560;7.262;2022-11-11T15:56:38;5.50;;;2.58;;
26484;SDS011;18083;50.560;7.262;2022-11-11T15:59:16;8.83;;;2.77;;
26484;SDS011;18083;50.560;7.262;2022-11-11T16:04:21;7.13;;;3.27;;
26484;SDS011;18083;50.560;7.262;2022-11-11T16:06:53;5.67;;;4.92;;
26484;SDS011;18083;50.560;7.262;2022-11-11T16:09:27;13.68;;;5.10;;
26484;SDS011;18083;50.560;7.262;2022-11-11T16:15:03;6.77;;;3.97;;
26484;SDS011;18083;50.560;7.262;2022-11-11T16:17:58;15.47;;;4.70;;
26484;SDS011;18083;50.560;7.262;2022-11-11T16:23:37;4.93;;;4.43;;
26484;SDS011;18083;50.560;7.262;2022-11-11T16:28:59;7.72;;;4.62;;
26484;SDS011;18083;50.560;7.262;2022-11-11T16:31:37;12.75;;;5.40;;
26484;SDS011;18083;50.560;7.262;2022-11-11T16:37:41;7.90;;;5.67;;
26484;SDS011;18083;50.560;7.262;2022-11-11T16:54:53;6.30;;;4.33;;
26484;SDS011;18083;50.560;7.262;2022-11-11T16:57:26;8.27;;;4.90;;
26484;SDS011;18083;50.560;7.262;2022-11-11T16:59:56;10.57;;;4.23;;
26484;SDS011;18083;50.560;7.262;2022-11-11T17:09:20;9.77;;;3.83;;
26484;SDS011;18083;50.560;7.262;2022-11-11T17:11:42;9.00;;;3.90;;
26484;SDS011;18083;50.560;7.262;2022-11-11T17:14:09;5.93;;;3.60;;
26484;SDS011;18083;50.560;7.262;2022-11-11T17:16:53;5.20;;;3.97;;
26484;SDS011;18083;50.560;7.262;2022-11-11T17:19:40;6.90;;;4.67;;